createdAt,value
2023-04-22T00:03:10.104Z,1.90
2023-04-22T00:06:52.002Z,1.63
2023-04-22T00:10:34.281Z,1.80
2023-04-22T00:14:16.067Z,1.77
2023-04-22T00:17:59.009Z,2.00
2023-04-22T00:21:40.820Z,1.47
2023-04-22T00:25:22.624Z,2.10
2023-04-22T00:29:04.365Z,1.60
2023-04-22T00:32:46.256Z,2.30
2023-04-22T00:36:28.084Z,2.07
2023-04-22T00:40:10.393Z,1.90
2023-04-22T00:43:53.535Z,1.93
2023-04-22T00:47:36.481Z,2.00
2023-04-22T00:51:18.234Z,2.20
2023-04-22T00:55:00.341Z,2.33
2023-04-22T00:58:42.145Z,2.30
2023-04-22T01:02:24.800Z,1.77
2023-04-22T01:06:07.229Z,2.17
2023-04-22T01:09:49.576Z,1.90
2023-04-22T01:13:32.571Z,2.23
2023-04-22T01:17:16.186Z,2.50
2023-04-22T01:20:58.098Z,2.20
2023-04-22T01:24:39.979Z,2.50
2023-04-22T01:28:23.143Z,2.30
2023-04-22T01:32:05.636Z,2.13
2023-04-22T01:35:47.792Z,2.03
2023-04-22T01:39:30.647Z,2.00
2023-04-22T01:43:12.509Z,2.30
2023-04-22T01:46:54.892Z,2.17
2023-04-22T01:50:37.246Z,2.20
2023-04-22T01:54:18.985Z,2.27
2023-04-22T01:58:00.702Z,2.00
2023-04-22T02:01:42.460Z,2.50
2023-04-22T02:05:24.253Z,1.87
2023-04-22T02:09:06.282Z,2.50
2023-04-22T02:12:48.044Z,2.20
2023-04-22T02:16:29.880Z,2.03
2023-04-22T02:20:12.545Z,2.13
2023-04-22T02:23:54.300Z,2.00
2023-04-22T02:27:36.047Z,2.87
2023-04-22T02:31:18.029Z,2.27
2023-04-22T02:34:59.814Z,2.00
2023-04-22T02:38:41.605Z,2.60
2023-04-22T02:42:23.502Z,2.37
2023-04-22T02:46:05.309Z,2.10
2023-04-22T02:49:47.054Z,2.53
2023-04-22T02:53:28.769Z,2.50
2023-04-22T02:57:10.708Z,2.50
2023-04-22T03:00:53.415Z,2.43
2023-04-22T03:04:35.496Z,2.20
2023-04-22T03:08:17.333Z,2.60
2023-04-22T03:11:59.071Z,2.50
2023-04-22T03:15:41.631Z,2.00
2023-04-22T03:19:23.363Z,2.27
2023-04-22T03:23:06.992Z,3.20
2023-04-22T03:26:48.696Z,2.40
2023-04-22T03:30:30.632Z,2.77
2023-04-22T03:34:12.355Z,3.10
2023-04-22T03:37:54.361Z,2.50
2023-04-22T03:41:36.091Z,3.03
2023-04-22T03:45:17.890Z,2.70
2023-04-22T03:48:59.871Z,2.53
2023-04-22T03:52:41.576Z,3.37
2023-04-22T03:56:24.558Z,2.27
2023-04-22T04:00:07.331Z,2.47
2023-04-22T04:03:49.220Z,2.87
2023-04-22T04:07:31.103Z,2.80
2023-04-22T04:11:12.844Z,2.53
2023-04-22T04:14:54.552Z,2.60
2023-04-22T04:18:36.681Z,2.90
2023-04-22T04:22:18.533Z,3.40
2023-04-22T04:26:02.875Z,2.70
2023-04-22T04:29:44.616Z,2.40
2023-04-22T04:33:27.071Z,2.60
2023-04-22T04:37:09.159Z,2.70
2023-04-22T04:40:51.896Z,2.87
2023-04-22T04:44:34.207Z,2.37
2023-04-22T04:48:16.766Z,2.53
2023-04-22T04:51:58.647Z,3.43
2023-04-22T04:55:40.578Z,3.50
2023-04-22T04:59:22.277Z,2.37
2023-04-22T05:03:04.150Z,2.77
2023-04-22T05:06:46.054Z,2.67
2023-04-22T05:10:27.873Z,3.57
2023-04-22T05:14:09.605Z,2.90
2023-04-22T05:17:51.291Z,3.60
2023-04-22T05:21:33.044Z,3.13
2023-04-22T05:25:14.817Z,3.67
2023-04-22T05:28:56.536Z,2.90
2023-04-22T05:32:38.327Z,2.67
2023-04-22T05:36:20.328Z,2.63
2023-04-22T05:40:02.050Z,2.97
2023-04-22T05:43:43.760Z,2.23
2023-04-22T05:47:25.730Z,2.37
2023-04-22T05:51:07.482Z,2.83
2023-04-22T05:54:49.174Z,2.37
2023-04-22T05:58:30.977Z,2.60
2023-04-22T06:02:12.796Z,2.80
2023-04-22T06:05:54.653Z,2.57
2023-04-22T06:09:36.424Z,2.27
2023-04-22T06:13:18.115Z,2.43
2023-04-22T06:17:00.200Z,2.53
2023-04-22T06:20:42.156Z,2.80
2023-04-22T06:24:23.909Z,2.37
2023-04-22T06:28:05.684Z,2.73
2023-04-22T06:31:47.441Z,2.67
2023-04-22T06:35:29.204Z,1.97
2023-04-22T06:39:11.156Z,2.30
2023-04-22T06:42:52.915Z,2.57
2023-04-22T06:46:34.718Z,2.80
2023-04-22T06:50:16.620Z,2.60
2023-04-22T06:53:58.544Z,2.60
2023-04-22T06:57:40.270Z,1.97
2023-04-22T07:01:22.051Z,2.33
2023-04-22T07:05:03.980Z,2.33
2023-04-22T07:08:45.725Z,2.20
2023-04-22T07:12:27.423Z,2.27
2023-04-22T07:16:09.368Z,2.77
2023-04-22T07:19:51.539Z,2.00
2023-04-22T07:23:33.307Z,2.20
2023-04-22T07:27:15.140Z,2.43
2023-04-22T07:30:56.930Z,2.60
2023-04-22T07:34:38.635Z,2.63
2023-04-22T07:38:20.893Z,2.37
2023-04-22T07:42:03.327Z,2.10
2023-04-22T07:45:45.390Z,2.53
2023-04-22T07:49:27.222Z,2.60
2023-04-22T07:53:10.862Z,3.00
2023-04-22T07:56:52.571Z,1.93
2023-04-22T08:00:35.386Z,2.10
2023-04-22T08:04:17.625Z,2.03
2023-04-22T08:07:59.753Z,2.67
2023-04-22T08:11:41.454Z,2.33
2023-04-22T08:15:23.446Z,2.60
2023-04-22T08:19:05.249Z,2.50
2023-04-22T08:22:47.228Z,3.00
2023-04-22T08:26:28.969Z,2.03
2023-04-22T08:30:10.902Z,2.63
2023-04-22T08:33:52.777Z,2.63
2023-04-22T08:37:34.998Z,2.20
2023-04-22T08:41:19.163Z,2.33
2023-04-22T08:45:03.006Z,2.23
2023-04-22T08:48:47.317Z,2.40
2023-04-22T08:52:30.724Z,2.50
2023-04-22T08:56:15.652Z,2.87
2023-04-22T08:59:57.872Z,2.80
2023-04-22T09:03:41.491Z,2.20
2023-04-22T09:07:27.203Z,2.30
2023-04-22T09:11:09.726Z,2.60
2023-04-22T09:14:52.574Z,3.00
2023-04-22T09:18:45.816Z,2.60
2023-04-22T09:22:47.844Z,2.23
2023-04-22T09:26:31.562Z,3.27
2023-04-22T09:30:14.720Z,3.20
2023-04-22T09:33:59.125Z,2.47
2023-04-22T09:37:48.829Z,3.03
2023-04-22T09:41:36.562Z,2.77
2023-04-22T09:45:38.292Z,2.87
2023-04-22T09:49:21.535Z,2.20
2023-04-22T09:53:09.522Z,2.50
2023-04-22T09:56:53.724Z,2.50
2023-04-22T10:00:44.447Z,3.80
2023-04-22T10:04:26.532Z,3.13
2023-04-22T10:08:10.989Z,2.80
2023-04-22T10:11:54.946Z,3.10
2023-04-22T10:15:41.284Z,2.60
2023-04-22T10:19:24.550Z,3.23
2023-04-22T10:23:11.917Z,4.13
2023-04-22T10:26:58.866Z,3.20
2023-04-22T10:30:41.072Z,2.40
2023-04-22T10:34:23.194Z,2.83
2023-04-22T10:38:09.831Z,2.50
2023-04-22T10:41:53.798Z,1.87
2023-04-22T10:45:36.660Z,2.60
2023-04-22T10:49:23.591Z,2.30
2023-04-22T10:53:37.148Z,2.43
2023-04-22T10:57:25.100Z,3.00
2023-04-22T11:01:15.021Z,2.17
2023-04-22T11:05:20.040Z,2.85
2023-04-22T11:09:13.006Z,2.17
2023-04-22T11:12:55.988Z,1.90
2023-04-22T11:16:38.545Z,2.00
2023-04-22T11:40:51.065Z,1.43
2023-04-22T11:49:39.609Z,1.30
2023-04-22T11:53:24.200Z,1.00
2023-04-22T12:02:13.001Z,1.20
2023-04-22T12:05:59.729Z,1.13
2023-04-22T12:09:41.665Z,1.47
2023-04-22T12:13:30.304Z,1.00
2023-04-22T12:17:12.451Z,1.10
2023-04-22T12:20:54.295Z,1.03
2023-04-22T12:24:36.201Z,1.20
2023-04-22T12:28:17.936Z,1.10
2023-04-22T12:32:00.703Z,1.23
2023-04-22T12:35:42.585Z,1.20
2023-04-22T12:39:24.429Z,0.90
2023-04-22T12:43:06.307Z,1.23
2023-04-22T12:46:48.259Z,0.90
2023-04-22T12:50:30.199Z,1.10
2023-04-22T12:54:11.911Z,0.90
2023-04-22T13:13:53.247Z,0.90
2023-04-22T13:17:36.150Z,0.67
2023-04-22T13:21:17.853Z,0.67
2023-04-22T13:25:00.258Z,0.67
2023-04-22T13:28:42.152Z,0.90
2023-04-22T13:32:23.953Z,0.60
2023-04-22T13:36:05.955Z,0.70
2023-04-22T13:39:47.871Z,0.90
2023-04-22T13:44:10.048Z,3.60
2023-04-22T13:47:52.272Z,3.10
2023-04-22T13:51:34.590Z,1.77
2023-04-22T13:55:16.645Z,1.57
2023-04-22T13:58:59.051Z,2.60
2023-04-22T14:02:41.114Z,2.67
2023-04-22T14:06:23.097Z,2.70
2023-04-22T14:10:07.902Z,2.60
2023-04-22T14:13:49.791Z,1.70
2023-04-22T14:17:31.522Z,1.23
2023-04-22T14:21:13.478Z,2.03
2023-04-22T14:24:55.659Z,2.00
2023-04-22T14:28:38.774Z,2.37
2023-04-22T14:32:20.815Z,2.23
2023-04-22T14:36:02.749Z,2.00
2023-04-22T14:39:44.490Z,1.90
2023-04-22T14:43:26.489Z,1.57
2023-04-22T14:47:08.376Z,1.40
2023-04-22T14:50:50.272Z,1.93
2023-04-22T14:54:32.137Z,1.53
2023-04-22T14:58:13.861Z,1.40
2023-04-22T15:01:55.802Z,1.30
2023-04-22T15:05:37.614Z,1.47
2023-04-22T15:09:19.365Z,1.37
2023-04-22T15:13:01.435Z,1.30
2023-04-22T15:16:43.528Z,1.20
2023-04-22T15:20:25.322Z,1.43
2023-04-22T15:24:07.277Z,1.43
2023-04-22T15:27:49.124Z,1.40
2023-04-22T15:31:31.073Z,1.53
2023-04-22T15:35:12.888Z,1.60
2023-04-22T15:38:59.260Z,1.30
2023-04-22T15:42:41.023Z,1.00
2023-04-22T15:46:23.375Z,1.47
2023-04-22T15:50:09.298Z,1.40
2023-04-22T15:53:53.404Z,1.10
2023-04-22T15:57:35.772Z,1.17
2023-04-22T16:01:20.230Z,1.20
2023-04-22T16:05:02.561Z,1.07
2023-04-22T16:08:45.485Z,1.00
2023-04-22T16:12:27.217Z,1.20
2023-04-22T16:16:09.425Z,1.80
2023-04-22T16:19:51.694Z,1.80
2023-04-22T16:23:34.583Z,3.03
2023-04-22T16:27:18.096Z,2.70
2023-04-22T16:31:00.477Z,2.67
2023-04-22T16:34:42.288Z,2.93
2023-04-22T16:38:24.175Z,2.60
2023-04-22T16:42:06.230Z,2.83
2023-04-22T16:45:48.840Z,2.10
2023-04-22T16:49:44.197Z,2.13
2023-04-22T16:53:29.441Z,2.20
2023-04-22T16:57:14.585Z,2.13
2023-04-22T17:00:59.424Z,2.67
2023-04-22T17:04:44.303Z,2.30
2023-04-22T17:08:26.201Z,2.60
2023-04-22T17:12:08.590Z,2.50
2023-04-22T17:15:52.324Z,2.60
2023-04-22T17:19:34.169Z,2.43
2023-04-22T17:23:16.821Z,2.50
2023-04-22T17:26:58.528Z,2.73
2023-04-22T17:30:40.780Z,2.40
2023-04-22T17:34:22.582Z,3.00
2023-04-22T17:38:04.372Z,3.40
2023-04-22T17:41:46.136Z,3.83
2023-04-22T17:45:28.001Z,4.33
2023-04-22T17:49:09.756Z,4.47
2023-04-22T17:52:51.513Z,2.87
2023-04-22T17:56:33.273Z,4.23
2023-04-22T18:00:16.787Z,2.87
2023-04-22T18:03:59.397Z,1.70
2023-04-22T18:07:41.330Z,2.50
2023-04-22T18:11:23.876Z,2.83
2023-04-22T18:15:06.669Z,1.90
2023-04-22T18:18:48.370Z,2.07
2023-04-22T18:22:30.172Z,2.80
2023-04-22T18:26:11.944Z,1.60
2023-04-22T18:29:55.196Z,1.70
2023-04-22T18:33:37.245Z,2.00
2023-04-22T18:37:18.988Z,1.53
2023-04-22T18:41:02.278Z,1.70
2023-04-22T18:44:44.057Z,2.23
2023-04-22T18:48:25.828Z,2.30
2023-04-22T18:52:08.958Z,1.83
2023-04-22T18:55:50.830Z,1.60
2023-04-22T18:59:32.538Z,1.87
2023-04-22T19:03:14.476Z,1.80
2023-04-22T19:06:57.097Z,1.50
2023-04-22T19:10:39.545Z,1.80
2023-04-22T19:14:21.423Z,1.60
2023-04-22T19:18:04.442Z,1.40
2023-04-22T19:21:46.200Z,1.50
2023-04-22T19:25:29.128Z,1.60
2023-04-22T19:29:15.975Z,1.37
2023-04-22T19:32:58.254Z,2.10
2023-04-22T19:36:40.207Z,2.03
2023-04-22T19:40:21.923Z,1.70
2023-04-22T19:44:04.436Z,1.90
2023-04-22T19:47:46.392Z,1.33
2023-04-22T19:51:28.416Z,1.40
2023-04-22T19:55:11.323Z,1.50
2023-04-22T19:58:53.724Z,1.40
2023-04-22T20:02:36.086Z,1.60
2023-04-22T20:06:19.078Z,1.17
2023-04-22T20:10:02.944Z,1.23
2023-04-22T20:13:46.782Z,1.77
2023-04-22T20:17:30.881Z,1.50
2023-04-22T20:21:14.568Z,1.53
2023-04-22T20:25:05.401Z,1.30
2023-04-22T20:28:52.174Z,1.47
2023-04-22T20:32:34.149Z,1.60
2023-04-22T20:36:17.764Z,1.20
2023-04-22T20:40:04.470Z,1.30
2023-04-22T20:43:47.198Z,1.17
2023-04-22T20:47:29.019Z,1.63
2023-04-22T20:51:10.840Z,1.70
2023-04-22T20:54:55.163Z,1.40
2023-04-22T20:58:36.893Z,1.23
2023-04-22T21:02:20.121Z,1.27
2023-04-22T21:06:02.390Z,1.00
2023-04-22T21:09:44.336Z,1.40
2023-04-22T21:13:26.645Z,1.17
2023-04-22T21:17:18.017Z,1.30
2023-04-22T21:21:03.285Z,1.37
2023-04-22T21:24:47.539Z,1.10
2023-04-22T21:28:29.866Z,1.30
2023-04-22T21:32:11.943Z,1.00
2023-04-22T21:35:53.922Z,1.20
2023-04-22T21:39:36.272Z,0.83
2023-04-22T21:43:18.033Z,0.80
2023-04-22T21:46:59.740Z,0.73
2023-04-22T21:50:41.605Z,0.97
2023-04-22T21:54:23.444Z,0.80
2023-04-22T21:58:05.176Z,0.60
2023-04-22T22:01:47.052Z,0.70
2023-04-22T22:05:28.971Z,0.83
2023-04-22T22:09:11.542Z,0.90
2023-04-22T22:12:53.400Z,0.90
2023-04-22T22:16:35.319Z,0.90
2023-04-22T22:20:20.369Z,0.87
2023-04-22T22:24:02.399Z,0.70
2023-04-22T22:27:46.844Z,0.90
2023-04-22T22:31:29.093Z,0.60
2023-04-22T22:35:11.044Z,0.60
2023-04-22T22:38:52.768Z,0.60
2023-04-22T22:42:34.540Z,0.53
2023-04-22T22:46:16.348Z,0.80
2023-04-22T22:49:58.264Z,0.53
2023-04-22T22:53:40.618Z,0.60
2023-04-22T22:57:22.463Z,0.60
2023-04-22T23:01:05.086Z,0.60
2023-04-22T23:04:46.918Z,0.63
2023-04-22T23:08:28.707Z,0.83
2023-04-22T23:12:10.639Z,0.60
2023-04-22T23:15:52.447Z,0.50
2023-04-22T23:19:35.187Z,0.50
2023-04-22T23:23:18.580Z,0.70
2023-04-22T23:27:01.256Z,0.80
2023-04-22T23:30:44.125Z,0.80
2023-04-22T23:34:26.433Z,0.60
2023-04-22T23:38:11.457Z,0.77
2023-04-22T23:41:53.189Z,0.60
2023-04-22T23:45:35.057Z,0.90
2023-04-22T23:49:16.895Z,0.60
2023-04-22T23:52:58.925Z,0.90
2023-04-22T23:56:41.228Z,0.53
